Max Cavalier — 9HA4128 — position and weather

sailwx.info

Track history (hours):
 
Tides and Currents Weather Stations Pressure Air Temp Water Temp Dewpoint Dewpoint Depression Visibility Wind Speed Wind Dir Waves Ship Positions

Max Cavalier

Last reported at 2017-Dec-18 04:04 UTC. Time now 2017-Dec-18 16:53 UTC.
Position N 36°25' E 019°39'.

Length 145 m; draft 7.4 m.

Type: Ship. MMSI: 249152000.

Date/timePositionNaut miles runAvg speedWind from/ knotsBaromVisibWave heightAir tempDewpointWater temp
2017-Dec-18 04:04N 36°25' E 019°39'310.2
2017-Dec-18 03:44N 36°26' E 019°35'310.2
2017-Dec-18 03:29N 36°26' E 019°31'510.2
2017-Dec-18 02:57N 36°26' E 019°25'410.1
2017-Dec-18 02:31N 36°26' E 019°19'510.1
2017-Dec-18 02:00N 36°26' E 019°13'510.1
2017-Dec-18 01:30N 36°27' E 019°07'510.2
2017-Dec-18 01:00N 36°27' E 019°00'510.1
2017-Dec-18 00:31N 36°27' E 018°54'510.2
2017-Dec-18 00:00N 36°28' E 018°48'510.2
2017-Dec-17 23:31N 36°28' E 018°41'510.0
2017-Dec-17 23:01N 36°28' E 018°35'510.1
2017-Dec-17 22:31N 36°28' E 018°29'510.1
2017-Dec-17 22:01N 36°28' E 018°23'510.2
2017-Dec-17 21:31N 36°28' E 018°16'510.2
2017-Dec-17 21:01N 36°28' E 018°10'510.3
2017-Dec-17 20:31N 36°29' E 018°04'510.4
2017-Dec-17 20:01N 36°29' E 017°57'510.2
2017-Dec-17 19:31N 36°29' E 017°51'510.0
2017-Dec-17 19:01N 36°29' E 017°45'510.0
2017-Dec-17 18:31N 36°30' E 017°38'5 9.7
2017-Dec-17 18:01N 36°30' E 017°32'5 9.6
2017-Dec-17 17:31N 36°30' E 017°26'5 9.6
2017-Dec-17 17:00N 36°30' E 017°20'5 9.8
2017-Dec-17 16:31N 36°30' E 017°14'5 9.6
2017-Dec-17 16:01N 36°30' E 017°08'5 9.5
2017-Dec-17 15:31N 36°30' E 017°02'5 9.6
2017-Dec-17 15:00N 36°30' E 016°56'5 9.9
2017-Dec-17 14:31N 36°31' E 016°50'5 9.9
2017-Dec-17 14:01N 36°31' E 016°44'5 9.9
2017-Dec-17 13:31N 36°31' E 016°38'5 9.9
2017-Dec-17 13:00N 36°31' E 016°32'5 9.8
2017-Dec-17 12:31N 36°31' E 016°26'5 9.8
2017-Dec-17 12:01N 36°32' E 016°20'5 9.9
2017-Dec-17 11:31N 36°32' E 016°13'5 9.9
2017-Dec-17 11:00N 36°32' E 016°07'510.0
2017-Dec-17 10:31N 36°32' E 016°01'510.0
2017-Dec-17 10:01N 36°32' E 015°55'510.0
2017-Dec-17 09:31N 36°32' E 015°49'510.0
2017-Dec-17 09:01N 36°33' E 015°42'510.0
2017-Dec-17 08:31N 36°33' E 015°36'510.0
2017-Dec-17 08:01N 36°33' E 015°30'5 9.9
2017-Dec-17 07:30N 36°33' E 015°24'5 9.7
2017-Dec-17 07:01N 36°33' E 015°18'5 9.8
2017-Dec-17 06:31N 36°33' E 015°12'5 9.9
2017-Dec-17 06:01N 36°33' E 015°05'510.4
2017-Dec-17 05:30N 36°34' E 014°59'510.8
2017-Dec-17 05:01N 36°35' E 014°53'610.7
2017-Dec-17 04:26N 36°36' E 014°45'237 7.6
2017-Dec-15 21:18N 37°16' E 009°52'0 0.0
2017-Dec-15 21:00N 37°16' E 009°52'0 0.0
2017-Dec-15 20:24N 37°16' E 009°52'0 0.0
2017-Dec-15 19:39N 37°16' E 009°52'0 0.0
2017-Dec-15 19:30N 37°16' E 009°52'0 0.0
2017-Dec-15 18:33N 37°16' E 009°52'0 0.1
2017-Dec-15 18:27N 37°16' E 009°52'0 0.0
2017-Dec-15 17:57N 37°16' E 009°52'0 0.0
2017-Dec-15 17:27N 37°16' E 009°52'0 0.0
2017-Dec-15 16:51N 37°16' E 009°52'  
Track history (hours):
 
Tides and Currents Weather Stations Pressure Air Temp Water Temp Dewpoint Dewpoint Depression Visibility Wind Speed Wind Dir Waves Ship Positions

Max Cavalier

Last reported at 2017-Dec-18 04:04 UTC. Time now 2017-Dec-18 16:53 UTC.
Position N 36°25' E 019°39'.

Length 145 m; draft 7.4 m.

Type: Ship. MMSI: 249152000.

Date/timePositionNaut miles runAvg speedWind from/ knotsBaromVisibWave heightAir tempDewpointWater temp
2017-Dec-18 04:04N 36°25' E 019°39'310.2
2017-Dec-18 03:44N 36°26' E 019°35'310.2
2017-Dec-18 03:29N 36°26' E 019°31'510.2
2017-Dec-18 02:57N 36°26' E 019°25'410.1
2017-Dec-18 02:31N 36°26' E 019°19'510.1
2017-Dec-18 02:00N 36°26' E 019°13'510.1
2017-Dec-18 01:30N 36°27' E 019°07'510.2
2017-Dec-18 01:00N 36°27' E 019°00'510.1
2017-Dec-18 00:31N 36°27' E 018°54'510.2
2017-Dec-18 00:00N 36°28' E 018°48'510.2
2017-Dec-17 23:31N 36°28' E 018°41'510.0
2017-Dec-17 23:01N 36°28' E 018°35'510.1
2017-Dec-17 22:31N 36°28' E 018°29'510.1
2017-Dec-17 22:01N 36°28' E 018°23'510.2
2017-Dec-17 21:31N 36°28' E 018°16'510.2
2017-Dec-17 21:01N 36°28' E 018°10'510.3
2017-Dec-17 20:31N 36°29' E 018°04'510.4
2017-Dec-17 20:01N 36°29' E 017°57'510.2
2017-Dec-17 19:31N 36°29' E 017°51'510.0
2017-Dec-17 19:01N 36°29' E 017°45'510.0
2017-Dec-17 18:31N 36°30' E 017°38'5 9.7
2017-Dec-17 18:01N 36°30' E 017°32'5 9.6
2017-Dec-17 17:31N 36°30' E 017°26'5 9.6
2017-Dec-17 17:00N 36°30' E 017°20'5 9.8
2017-Dec-17 16:31N 36°30' E 017°14'5 9.6
2017-Dec-17 16:01N 36°30' E 017°08'5 9.5
2017-Dec-17 15:31N 36°30' E 017°02'5 9.6
2017-Dec-17 15:00N 36°30' E 016°56'5 9.9
2017-Dec-17 14:31N 36°31' E 016°50'5 9.9
2017-Dec-17 14:01N 36°31' E 016°44'5 9.9
2017-Dec-17 13:31N 36°31' E 016°38'5 9.9
2017-Dec-17 13:00N 36°31' E 016°32'5 9.8
2017-Dec-17 12:31N 36°31' E 016°26'5 9.8
2017-Dec-17 12:01N 36°32' E 016°20'5 9.9
2017-Dec-17 11:31N 36°32' E 016°13'5 9.9
2017-Dec-17 11:00N 36°32' E 016°07'510.0
2017-Dec-17 10:31N 36°32' E 016°01'510.0
2017-Dec-17 10:01N 36°32' E 015°55'510.0
2017-Dec-17 09:31N 36°32' E 015°49'510.0
2017-Dec-17 09:01N 36°33' E 015°42'510.0
2017-Dec-17 08:31N 36°33' E 015°36'510.0
2017-Dec-17 08:01N 36°33' E 015°30'5 9.9
2017-Dec-17 07:30N 36°33' E 015°24'5 9.7
2017-Dec-17 07:01N 36°33' E 015°18'5 9.8
2017-Dec-17 06:31N 36°33' E 015°12'5 9.9
2017-Dec-17 06:01N 36°33' E 015°05'510.4
2017-Dec-17 05:30N 36°34' E 014°59'510.8
2017-Dec-17 05:01N 36°35' E 014°53'610.7
2017-Dec-17 04:26N 36°36' E 014°45'237 7.6
2017-Dec-15 21:18N 37°16' E 009°52'0 0.0
2017-Dec-15 21:00N 37°16' E 009°52'0 0.0
2017-Dec-15 20:24N 37°16' E 009°52'0 0.0
2017-Dec-15 19:39N 37°16' E 009°52'0 0.0
2017-Dec-15 19:30N 37°16' E 009°52'0 0.0
2017-Dec-15 18:33N 37°16' E 009°52'0 0.1
2017-Dec-15 18:27N 37°16' E 009°52'0 0.0
2017-Dec-15 17:57N 37°16' E 009°52'0 0.0
2017-Dec-15 17:27N 37°16' E 009°52'0 0.0
2017-Dec-15 16:51N 37°16' E 009°52'  

Dump ship's entire track history